sensor_id;sensor_type;location;lat;lon;timestamp;P1;durP1;ratioP1;P2;durP2;ratioP2
6775;SDS011;3425;51.376;5.222;2023-02-23T00:01:13;2.70;;;2.30;;
6775;SDS011;3425;51.376;5.222;2023-02-23T00:03:41;5.63;;;3.88;;
6775;SDS011;3425;51.376;5.222;2023-02-23T00:06:09;4.28;;;2.83;;
6775;SDS011;3425;51.376;5.222;2023-02-23T00:08:36;5.82;;;2.50;;
6775;SDS011;3425;51.376;5.222;2023-02-23T00:11:04;5.95;;;3.33;;
6775;SDS011;3425;51.376;5.222;2023-02-23T00:13:32;6.68;;;3.60;;
6775;SDS011;3425;51.376;5.222;2023-02-23T00:16:03;7.07;;;3.03;;
6775;SDS011;3425;51.376;5.222;2023-02-23T00:18:30;6.13;;;3.25;;
6775;SDS011;3425;51.376;5.222;2023-02-23T00:21:06;9.48;;;3.67;;
6775;SDS011;3425;51.376;5.222;2023-02-23T00:23:33;20.98;;;2.65;;
6775;SDS011;3425;51.376;5.222;2023-02-23T00:26:03;8.57;;;2.22;;
6775;SDS011;3425;51.376;5.222;2023-02-23T00:28:31;7.15;;;4.57;;
6775;SDS011;3425;51.376;5.222;2023-02-23T00:31:00;4.32;;;3.05;;
6775;SDS011;3425;51.376;5.222;2023-02-23T00:33:27;12.20;;;3.05;;
6775;SDS011;3425;51.376;5.222;2023-02-23T00:36:03;10.52;;;4.35;;
6775;SDS011;3425;51.376;5.222;2023-02-23T00:38:30;7.28;;;4.07;;
6775;SDS011;3425;51.376;5.222;2023-02-23T00:41:08;4.20;;;3.28;;
6775;SDS011;3425;51.376;5.222;2023-02-23T00:43:38;2.78;;;2.58;;
6775;SDS011;3425;51.376;5.222;2023-02-23T00:46:16;11.32;;;5.80;;
6775;SDS011;3425;51.376;5.222;2023-02-23T00:48:44;9.80;;;2.88;;
6775;SDS011;3425;51.376;5.222;2023-02-23T00:51:11;10.48;;;4.30;;
6775;SDS011;3425;51.376;5.222;2023-02-23T00:53:39;1.80;;;1.50;;
6775;SDS011;3425;51.376;5.222;2023-02-23T00:56:07;3.92;;;2.60;;
6775;SDS011;3425;51.376;5.222;2023-02-23T00:58:34;13.50;;;3.05;;
6775;SDS011;3425;51.376;5.222;2023-02-23T01:01:04;8.75;;;2.85;;
6775;SDS011;3425;51.376;5.222;2023-02-23T01:03:32;4.00;;;2.83;;
6775;SDS011;3425;51.376;5.222;2023-02-23T01:05:59;3.22;;;2.88;;
6775;SDS011;3425;51.376;5.222;2023-02-23T01:08:33;4.38;;;3.35;;
6775;SDS011;3425;51.376;5.222;2023-02-23T01:11:05;4.72;;;2.85;;
6775;SDS011;3425;51.376;5.222;2023-02-23T01:13:32;2.40;;;1.73;;
6775;SDS011;3425;51.376;5.222;2023-02-23T01:15:59;2.63;;;1.83;;
6775;SDS011;3425;51.376;5.222;2023-02-23T01:18:27;6.80;;;3.17;;
6775;SDS011;3425;51.376;5.222;2023-02-23T01:20:54;3.40;;;2.92;;
6775;SDS011;3425;51.376;5.222;2023-02-23T01:23:22;3.10;;;2.80;;
6775;SDS011;3425;51.376;5.222;2023-02-23T01:25:49;6.00;;;4.10;;
6775;SDS011;3425;51.376;5.222;2023-02-23T01:28:16;3.03;;;2.25;;
6775;SDS011;3425;51.376;5.222;2023-02-23T01:30:43;5.63;;;3.13;;
6775;SDS011;3425;51.376;5.222;2023-02-23T01:33:11;2.13;;;1.98;;
6775;SDS011;3425;51.376;5.222;2023-02-23T01:35:39;1.67;;;1.58;;
6775;SDS011;3425;51.376;5.222;2023-02-23T01:38:06;5.55;;;3.45;;
6775;SDS011;3425;51.376;5.222;2023-02-23T01:40:33;3.28;;;3.03;;
6775;SDS011;3425;51.376;5.222;2023-02-23T01:43:09;3.42;;;2.25;;
6775;SDS011;3425;51.376;5.222;2023-02-23T01:45:38;8.10;;;2.45;;
6775;SDS011;3425;51.376;5.222;2023-02-23T01:48:13;1.50;;;1.40;;
6775;SDS011;3425;51.376;5.222;2023-02-23T01:51:00;7.43;;;4.85;;
6775;SDS011;3425;51.376;5.222;2023-02-23T01:53:29;11.68;;;3.20;;
6775;SDS011;3425;51.376;5.222;2023-02-23T01:56:06;5.63;;;3.47;;
6775;SDS011;3425;51.376;5.222;2023-02-23T01:58:38;2.85;;;2.35;;
6775;SDS011;3425;51.376;5.222;2023-02-23T02:01:06;7.45;;;3.33;;
6775;SDS011;3425;51.376;5.222;2023-02-23T02:03:36;9.25;;;5.28;;
6775;SDS011;3425;51.376;5.222;2023-02-23T02:06:04;5.57;;;3.13;;
6775;SDS011;3425;51.376;5.222;2023-02-23T02:08:35;5.55;;;3.53;;
6775;SDS011;3425;51.376;5.222;2023-02-23T02:11:10;2.83;;;2.55;;
6775;SDS011;3425;51.376;5.222;2023-02-23T02:13:56;14.23;;;4.13;;
6775;SDS011;3425;51.376;5.222;2023-02-23T02:19:04;3.40;;;3.08;;
6775;SDS011;3425;51.376;5.222;2023-02-23T02:21:41;9.82;;;3.70;;
6775;SDS011;3425;51.376;5.222;2023-02-23T02:27:09;2.90;;;2.67;;
6775;SDS011;3425;51.376;5.222;2023-02-23T02:29:44;7.18;;;4.72;;
6775;SDS011;3425;51.376;5.222;2023-02-23T02:35:02;7.95;;;3.47;;
6775;SDS011;3425;51.376;5.222;2023-02-23T02:38:36;5.82;;;2.55;;
6775;SDS011;3425;51.376;5.222;2023-02-23T02:40:35;4.30;;;3.05;;
6775;SDS011;3425;51.376;5.222;2023-02-23T02:53:46;10.07;;;4.78;;
6775;SDS011;3425;51.376;5.222;2023-02-23T02:56:16;5.47;;;3.80;;
6775;SDS011;3425;51.376;5.222;2023-02-23T02:58:45;2.90;;;2.67;;
6775;SDS011;3425;51.376;5.222;2023-02-23T03:01:15;6.45;;;3.78;;
6775;SDS011;3425;51.376;5.222;2023-02-23T03:04:21;5.32;;;3.80;;
6775;SDS011;3425;51.376;5.222;2023-02-23T03:07:19;10.50;;;4.55;;
6775;SDS011;3425;51.376;5.222;2023-02-23T03:10:07;5.28;;;3.72;;
6775;SDS011;3425;51.376;5.222;2023-02-23T03:13:08;17.50;;;4.22;;
6775;SDS011;3425;51.376;5.222;2023-02-23T03:24:39;8.23;;;3.28;;
6775;SDS011;3425;51.376;5.222;2023-02-23T03:30:26;8.20;;;2.97;;
6775;SDS011;3425;51.376;5.222;2023-02-23T03:33:15;6.05;;;3.65;;
6775;SDS011;3425;51.376;5.222;2023-02-23T03:36:07;6.47;;;4.22;;
6775;SDS011;3425;51.376;5.222;2023-02-23T03:38:59;35.95;;;4.70;;
6775;SDS011;3425;51.376;5.222;2023-02-23T03:41:48;6.13;;;3.13;;
6775;SDS011;3425;51.376;5.222;2023-02-23T03:44:36;8.55;;;3.70;;
6775;SDS011;3425;51.376;5.222;2023-02-23T03:47:25;5.07;;;4.15;;
6775;SDS011;3425;51.376;5.222;2023-02-23T03:50:23;5.03;;;3.47;;
6775;SDS011;3425;51.376;5.222;2023-02-23T03:53:09;8.57;;;3.85;;
6775;SDS011;3425;51.376;5.222;2023-02-23T03:55:58;6.85;;;2.85;;
6775;SDS011;3425;51.376;5.222;2023-02-23T03:58:47;3.38;;;3.05;;
6775;SDS011;3425;51.376;5.222;2023-02-23T04:01:34;2.03;;;1.90;;
6775;SDS011;3425;51.376;5.222;2023-02-23T04:04:21;12.93;;;3.63;;
6775;SDS011;3425;51.376;5.222;2023-02-23T04:07:08;5.40;;;3.60;;
6775;SDS011;3425;51.376;5.222;2023-02-23T04:09:55;13.85;;;4.82;;
6775;SDS011;3425;51.376;5.222;2023-02-23T04:15:31;11.15;;;4.10;;
6775;SDS011;3425;51.376;5.222;2023-02-23T04:17:59;4.70;;;3.55;;
6775;SDS011;3425;51.376;5.222;2023-02-23T04:20:29;8.45;;;3.45;;
6775;SDS011;3425;51.376;5.222;2023-02-23T04:22:56;8.63;;;2.97;;
6775;SDS011;3425;51.376;5.222;2023-02-23T04:25:23;3.60;;;2.47;;
6775;SDS011;3425;51.376;5.222;2023-02-23T04:27:52;12.82;;;4.97;;
6775;SDS011;3425;51.376;5.222;2023-02-23T04:30:22;4.32;;;3.42;;
6775;SDS011;3425;51.376;5.222;2023-02-23T04:32:54;6.95;;;4.65;;
6775;SDS011;3425;51.376;5.222;2023-02-23T04:35:21;4.88;;;2.92;;
6775;SDS011;3425;51.376;5.222;2023-02-23T04:37:48;12.73;;;3.70;;
6775;SDS011;3425;51.376;5.222;2023-02-23T04:40:16;4.85;;;2.50;;
6775;SDS011;3425;51.376;5.222;2023-02-23T04:42:43;4.45;;;2.78;;
6775;SDS011;3425;51.376;5.222;2023-02-23T04:45:10;4.65;;;3.22;;
6775;SDS011;3425;51.376;5.222;2023-02-23T04:47:37;16.02;;;6.53;;
6775;SDS011;3425;51.376;5.222;2023-02-23T04:50:04;8.77;;;5.15;;
6775;SDS011;3425;51.376;5.222;2023-02-23T04:52:32;3.05;;;2.83;;
6775;SDS011;3425;51.376;5.222;2023-02-23T04:55:00;5.75;;;3.90;;
6775;SDS011;3425;51.376;5.222;2023-02-23T04:57:27;3.58;;;3.28;;
6775;SDS011;3425;51.376;5.222;2023-02-23T04:59:54;5.57;;;3.40;;
6775;SDS011;3425;51.376;5.222;2023-02-23T05:02:21;5.18;;;3.55;;
6775;SDS011;3425;51.376;5.222;2023-02-23T05:04:49;8.50;;;5.43;;
6775;SDS011;3425;51.376;5.222;2023-02-23T05:07:17;13.32;;;6.47;;
6775;SDS011;3425;51.376;5.222;2023-02-23T05:09:44;5.05;;;3.22;;
6775;SDS011;3425;51.376;5.222;2023-02-23T05:12:11;6.75;;;2.72;;
6775;SDS011;3425;51.376;5.222;2023-02-23T05:14:38;8.93;;;3.72;;
6775;SDS011;3425;51.376;5.222;2023-02-23T05:17:05;12.05;;;4.68;;
6775;SDS011;3425;51.376;5.222;2023-02-23T05:19:34;10.27;;;3.85;;
6775;SDS011;3425;51.376;5.222;2023-02-23T05:22:02;5.75;;;3.75;;
6775;SDS011;3425;51.376;5.222;2023-02-23T05:24:29;9.30;;;4.97;;
6775;SDS011;3425;51.376;5.222;2023-02-23T05:26:56;10.70;;;4.63;;
6775;SDS011;3425;51.376;5.222;2023-02-23T05:29:24;6.18;;;1.80;;
6775;SDS011;3425;51.376;5.222;2023-02-23T05:31:51;12.65;;;3.78;;
6775;SDS011;3425;51.376;5.222;2023-02-23T05:34:18;4.70;;;3.55;;
6775;SDS011;3425;51.376;5.222;2023-02-23T05:36:45;10.27;;;3.03;;
6775;SDS011;3425;51.376;5.222;2023-02-23T05:39:12;4.80;;;3.95;;
6775;SDS011;3425;51.376;5.222;2023-02-23T05:41:40;7.70;;;3.95;;
6775;SDS011;3425;51.376;5.222;2023-02-23T05:44:07;3.80;;;3.05;;
6775;SDS011;3425;51.376;5.222;2023-02-23T05:46:34;7.65;;;3.38;;
6775;SDS011;3425;51.376;5.222;2023-02-23T05:49:02;3.35;;;2.92;;
6775;SDS011;3425;51.376;5.222;2023-02-23T05:51:29;3.10;;;2.40;;
6775;SDS011;3425;51.376;5.222;2023-02-23T05:53:57;10.65;;;2.63;;
6775;SDS011;3425;51.376;5.222;2023-02-23T05:56:24;6.22;;;4.45;;
6775;SDS011;3425;51.376;5.222;2023-02-23T05:58:55;4.30;;;3.65;;
6775;SDS011;3425;51.376;5.222;2023-02-23T06:01:23;12.48;;;3.85;;
6775;SDS011;3425;51.376;5.222;2023-02-23T06:03:50;4.18;;;2.15;;
6775;SDS011;3425;51.376;5.222;2023-02-23T06:06:18;4.13;;;3.00;;
6775;SDS011;3425;51.376;5.222;2023-02-23T06:08:45;3.83;;;3.08;;
6775;SDS011;3425;51.376;5.222;2023-02-23T06:11:12;3.15;;;2.67;;
6775;SDS011;3425;51.376;5.222;2023-02-23T06:13:40;6.80;;;3.38;;
6775;SDS011;3425;51.376;5.222;2023-02-23T06:16:07;4.18;;;2.47;;
6775;SDS011;3425;51.376;5.222;2023-02-23T06:18:34;4.35;;;3.55;;
6775;SDS011;3425;51.376;5.222;2023-02-23T06:21:02;2.97;;;1.98;;
6775;SDS011;3425;51.376;5.222;2023-02-23T06:23:30;4.55;;;3.35;;
6775;SDS011;3425;51.376;5.222;2023-02-23T06:25:57;3.72;;;2.10;;
6775;SDS011;3425;51.376;5.222;2023-02-23T06:28:26;14.82;;;4.00;;
6775;SDS011;3425;51.376;5.222;2023-02-23T06:30:53;9.95;;;3.20;;
6775;SDS011;3425;51.376;5.222;2023-02-23T06:33:23;6.65;;;3.70;;
6775;SDS011;3425;51.376;5.222;2023-02-23T06:35:51;5.97;;;2.85;;
6775;SDS011;3425;51.376;5.222;2023-02-23T06:38:19;7.95;;;3.05;;
6775;SDS011;3425;51.376;5.222;2023-02-23T06:40:47;4.95;;;3.05;;
6775;SDS011;3425;51.376;5.222;2023-02-23T06:43:14;7.65;;;3.25;;
6775;SDS011;3425;51.376;5.222;2023-02-23T06:45:41;8.52;;;4.25;;
6775;SDS011;3425;51.376;5.222;2023-02-23T06:48:09;9.30;;;4.15;;
6775;SDS011;3425;51.376;5.222;2023-02-23T06:50:36;5.15;;;2.90;;
6775;SDS011;3425;51.376;5.222;2023-02-23T06:53:03;9.68;;;3.70;;
6775;SDS011;3425;51.376;5.222;2023-02-23T06:55:31;9.70;;;4.50;;
6775;SDS011;3425;51.376;5.222;2023-02-23T06:57:58;3.97;;;2.50;;
6775;SDS011;3425;51.376;5.222;2023-02-23T07:00:25;6.60;;;2.05;;
6775;SDS011;3425;51.376;5.222;2023-02-23T07:02:52;6.13;;;3.00;;
6775;SDS011;3425;51.376;5.222;2023-02-23T07:05:19;6.53;;;4.43;;
6775;SDS011;3425;51.376;5.222;2023-02-23T07:07:47;21.90;;;2.95;;
6775;SDS011;3425;51.376;5.222;2023-02-23T07:10:14;4.90;;;2.97;;
6775;SDS011;3425;51.376;5.222;2023-02-23T07:12:41;6.18;;;2.58;;
6775;SDS011;3425;51.376;5.222;2023-02-23T07:15:08;8.48;;;4.28;;
6775;SDS011;3425;51.376;5.222;2023-02-23T07:17:36;5.82;;;2.58;;
6775;SDS011;3425;51.376;5.222;2023-02-23T07:20:03;11.27;;;5.07;;
6775;SDS011;3425;51.376;5.222;2023-02-23T07:22:30;12.38;;;3.42;;
6775;SDS011;3425;51.376;5.222;2023-02-23T07:24:59;5.43;;;2.33;;
6775;SDS011;3425;51.376;5.222;2023-02-23T07:27:26;4.40;;;3.83;;
6775;SDS011;3425;51.376;5.222;2023-02-23T07:29:53;6.25;;;3.42;;
6775;SDS011;3425;51.376;5.222;2023-02-23T07:32:20;5.63;;;3.40;;
6775;SDS011;3425;51.376;5.222;2023-02-23T07:34:48;4.20;;;2.50;;
6775;SDS011;3425;51.376;5.222;2023-02-23T07:37:18;4.82;;;3.35;;
6775;SDS011;3425;51.376;5.222;2023-02-23T07:39:46;6.68;;;2.90;;
6775;SDS011;3425;51.376;5.222;2023-02-23T07:42:13;5.75;;;4.18;;
6775;SDS011;3425;51.376;5.222;2023-02-23T07:44:40;6.03;;;3.50;;
6775;SDS011;3425;51.376;5.222;2023-02-23T07:47:08;12.38;;;4.13;;
6775;SDS011;3425;51.376;5.222;2023-02-23T07:49:35;1.80;;;1.65;;
6775;SDS011;3425;51.376;5.222;2023-02-23T07:52:02;15.48;;;3.38;;
6775;SDS011;3425;51.376;5.222;2023-02-23T07:54:29;3.55;;;3.15;;
6775;SDS011;3425;51.376;5.222;2023-02-23T07:56:56;3.92;;;3.35;;
6775;SDS011;3425;51.376;5.222;2023-02-23T07:59:24;3.72;;;2.25;;
6775;SDS011;3425;51.376;5.222;2023-02-23T08:01:51;2.20;;;2.08;;
6775;SDS011;3425;51.376;5.222;2023-02-23T08:04:18;2.08;;;1.55;;
6775;SDS011;3425;51.376;5.222;2023-02-23T08:06:47;11.90;;;3.60;;
6775;SDS011;3425;51.376;5.222;2023-02-23T08:09:14;3.35;;;3.05;;
6775;SDS011;3425;51.376;5.222;2023-02-23T08:11:41;7.10;;;2.83;;
6775;SDS011;3425;51.376;5.222;2023-02-23T08:14:09;1.88;;;1.77;;
6775;SDS011;3425;51.376;5.222;2023-02-23T08:16:36;6.03;;;2.15;;
6775;SDS011;3425;51.376;5.222;2023-02-23T08:19:03;3.53;;;3.15;;
6775;SDS011;3425;51.376;5.222;2023-02-23T08:21:33;6.45;;;3.03;;
6775;SDS011;3425;51.376;5.222;2023-02-23T08:24:00;10.07;;;2.72;;
6775;SDS011;3425;51.376;5.222;2023-02-23T08:26:27;4.30;;;3.40;;
6775;SDS011;3425;51.376;5.222;2023-02-23T08:28:54;4.50;;;3.08;;
6775;SDS011;3425;51.376;5.222;2023-02-23T08:31:21;6.80;;;3.13;;
6775;SDS011;3425;51.376;5.222;2023-02-23T08:33:50;4.28;;;2.85;;
6775;SDS011;3425;51.376;5.222;2023-02-23T08:36:17;3.33;;;3.03;;
6775;SDS011;3425;51.376;5.222;2023-02-23T08:38:46;12.15;;;4.97;;
6775;SDS011;3425;51.376;5.222;2023-02-23T08:41:13;7.22;;;4.07;;
6775;SDS011;3425;51.376;5.222;2023-02-23T08:43:40;5.72;;;3.33;;
6775;SDS011;3425;51.376;5.222;2023-02-23T08:46:09;6.72;;;3.50;;
6775;SDS011;3425;51.376;5.222;2023-02-23T08:48:37;2.65;;;2.38;;
6775;SDS011;3425;51.376;5.222;2023-02-23T08:51:06;6.60;;;2.50;;
6775;SDS011;3425;51.376;5.222;2023-02-23T08:53:33;14.13;;;4.63;;
6775;SDS011;3425;51.376;5.222;2023-02-23T08:56:02;5.22;;;4.38;;
6775;SDS011;3425;51.376;5.222;2023-02-23T08:58:29;9.93;;;4.40;;
6775;SDS011;3425;51.376;5.222;2023-02-23T09:00:58;6.20;;;3.60;;
6775;SDS011;3425;51.376;5.222;2023-02-23T09:03:25;7.20;;;3.50;;
6775;SDS011;3425;51.376;5.222;2023-02-23T09:05:56;4.85;;;3.13;;
6775;SDS011;3425;51.376;5.222;2023-02-23T09:08:23;4.72;;;3.85;;
6775;SDS011;3425;51.376;5.222;2023-02-23T09:10:50;2.55;;;2.13;;
6775;SDS011;3425;51.376;5.222;2023-02-23T09:13:19;5.13;;;4.43;;
6775;SDS011;3425;51.376;5.222;2023-02-23T09:15:46;16.15;;;4.57;;
6775;SDS011;3425;51.376;5.222;2023-02-23T09:18:13;4.80;;;3.83;;
6775;SDS011;3425;51.376;5.222;2023-02-23T09:20:41;8.57;;;3.65;;
6775;SDS011;3425;51.376;5.222;2023-02-23T09:23:08;5.07;;;3.88;;
6775;SDS011;3425;51.376;5.222;2023-02-23T09:25:42;6.05;;;3.58;;
6775;SDS011;3425;51.376;5.222;2023-02-23T09:28:10;2.33;;;1.58;;
6775;SDS011;3425;51.376;5.222;2023-02-23T09:30:38;7.20;;;2.97;;
6775;SDS011;3425;51.376;5.222;2023-02-23T09:33:06;5.47;;;3.63;;
6775;SDS011;3425;51.376;5.222;2023-02-23T09:35:34;4.65;;;2.20;;
6775;SDS011;3425;51.376;5.222;2023-02-23T09:38:02;13.50;;;4.38;;
6775;SDS011;3425;51.376;5.222;2023-02-23T09:40:51;7.18;;;3.20;;
6775;SDS011;3425;51.376;5.222;2023-02-23T09:43:29;14.27;;;4.40;;
6775;SDS011;3425;51.376;5.222;2023-02-23T09:46:10;2.53;;;2.33;;
6775;SDS011;3425;51.376;5.222;2023-02-23T09:48:40;6.70;;;3.10;;
6775;SDS011;3425;51.376;5.222;2023-02-23T09:51:09;3.92;;;3.00;;
6775;SDS011;3425;51.376;5.222;2023-02-23T09:53:48;3.63;;;2.75;;
6775;SDS011;3425;51.376;5.222;2023-02-23T09:56:17;5.40;;;3.75;;
6775;SDS011;3425;51.376;5.222;2023-02-23T09:58:47;4.35;;;2.97;;
6775;SDS011;3425;51.376;5.222;2023-02-23T10:04:06;4.72;;;3.42;;
6775;SDS011;3425;51.376;5.222;2023-02-23T10:06:36;2.80;;;2.45;;
6775;SDS011;3425;51.376;5.222;2023-02-23T10:16:56;10.27;;;4.07;;
6775;SDS011;3425;51.376;5.222;2023-02-23T10:22:01;2.05;;;1.95;;
6775;SDS011;3425;51.376;5.222;2023-02-23T10:24:32;8.10;;;3.60;;
6775;SDS011;3425;51.376;5.222;2023-02-23T10:27:14;4.43;;;2.63;;
6775;SDS011;3425;51.376;5.222;2023-02-23T10:29:50;10.75;;;2.67;;
6775;SDS011;3425;51.376;5.222;2023-02-23T10:32:23;6.93;;;2.90;;
6775;SDS011;3425;51.376;5.222;2023-02-23T10:34:52;6.20;;;3.65;;
6775;SDS011;3425;51.376;5.222;2023-02-23T10:37:22;2.33;;;2.13;;
6775;SDS011;3425;51.376;5.222;2023-02-23T10:39:51;6.43;;;3.08;;
6775;SDS011;3425;51.376;5.222;2023-02-23T10:42:22;13.35;;;1.65;;
6775;SDS011;3425;51.376;5.222;2023-02-23T10:44:54;4.55;;;2.15;;
6775;SDS011;3425;51.376;5.222;2023-02-23T10:47:23;4.75;;;2.65;;
6775;SDS011;3425;51.376;5.222;2023-02-23T10:49:52;3.70;;;2.83;;
6775;SDS011;3425;51.376;5.222;2023-02-23T10:52:20;7.18;;;3.40;;
6775;SDS011;3425;51.376;5.222;2023-02-23T10:54:50;2.60;;;2.42;;
6775;SDS011;3425;51.376;5.222;2023-02-23T10:57:30;7.75;;;3.00;;
6775;SDS011;3425;51.376;5.222;2023-02-23T11:02:38;3.05;;;2.80;;
6775;SDS011;3425;51.376;5.222;2023-02-23T11:05:26;8.35;;;3.75;;
6775;SDS011;3425;51.376;5.222;2023-02-23T11:10:40;9.23;;;2.25;;
6775;SDS011;3425;51.376;5.222;2023-02-23T11:13:20;5.93;;;3.58;;
6775;SDS011;3425;51.376;5.222;2023-02-23T11:15:48;3.63;;;2.63;;
6775;SDS011;3425;51.376;5.222;2023-02-23T11:18:23;6.15;;;3.38;;
6775;SDS011;3425;51.376;5.222;2023-02-23T11:20:51;6.18;;;2.88;;
6775;SDS011;3425;51.376;5.222;2023-02-23T11:23:24;7.75;;;1.63;;
6775;SDS011;3425;51.376;5.222;2023-02-23T11:25:55;10.55;;;3.70;;
6775;SDS011;3425;51.376;5.222;2023-02-23T11:28:35;3.17;;;2.40;;
6775;SDS011;3425;51.376;5.222;2023-02-23T11:31:29;5.55;;;2.80;;
6775;SDS011;3425;51.376;5.222;2023-02-23T11:33:54;4.90;;;2.28;;
6775;SDS011;3425;51.376;5.222;2023-02-23T11:36:26;3.60;;;2.85;;
6775;SDS011;3425;51.376;5.222;2023-02-23T11:39:06;9.00;;;2.63;;
6775;SDS011;3425;51.376;5.222;2023-02-23T11:41:33;5.65;;;2.60;;
6775;SDS011;3425;51.376;5.222;2023-02-23T11:44:02;1.90;;;1.30;;
6775;SDS011;3425;51.376;5.222;2023-02-23T11:46:34;10.00;;;1.58;;
6775;SDS011;3425;51.376;5.222;2023-02-23T11:49:06;7.40;;;2.00;;
6775;SDS011;3425;51.376;5.222;2023-02-23T11:51:34;5.65;;;2.40;;
6775;SDS011;3425;51.376;5.222;2023-02-23T11:54:03;2.83;;;1.92;;
6775;SDS011;3425;51.376;5.222;2023-02-23T11:56:32;6.13;;;2.22;;
6775;SDS011;3425;51.376;5.222;2023-02-23T11:59:00;2.80;;;1.92;;
6775;SDS011;3425;51.376;5.222;2023-02-23T12:01:41;1.42;;;1.33;;
6775;SDS011;3425;51.376;5.222;2023-02-23T12:04:27;1.95;;;1.20;;
6775;SDS011;3425;51.376;5.222;2023-02-23T12:09:41;3.30;;;2.67;;
6775;SDS011;3425;51.376;5.222;2023-02-23T12:12:12;7.35;;;2.65;;
6775;SDS011;3425;51.376;5.222;2023-02-23T12:14:43;2.58;;;2.38;;
6775;SDS011;3425;51.376;5.222;2023-02-23T12:17:16;4.90;;;1.88;;
6775;SDS011;3425;51.376;5.222;2023-02-23T12:19:48;7.25;;;2.30;;
6775;SDS011;3425;51.376;5.222;2023-02-23T12:22:19;6.57;;;3.65;;
6775;SDS011;3425;51.376;5.222;2023-02-23T12:24:51;5.50;;;2.20;;
6775;SDS011;3425;51.376;5.222;2023-02-23T12:30:09;6.88;;;1.70;;
6775;SDS011;3425;51.376;5.222;2023-02-23T12:35:27;7.45;;;2.47;;
6775;SDS011;3425;51.376;5.222;2023-02-23T12:40:25;8.80;;;2.80;;
6775;SDS011;3425;51.376;5.222;2023-02-23T12:45:47;5.20;;;1.35;;
6775;SDS011;3425;51.376;5.222;2023-02-23T12:51:07;18.92;;;3.00;;
6775;SDS011;3425;51.376;5.222;2023-02-23T12:53:43;4.05;;;3.03;;
6775;SDS011;3425;51.376;5.222;2023-02-23T12:56:20;3.88;;;2.45;;
6775;SDS011;3425;51.376;5.222;2023-02-23T12:58:58;6.05;;;2.40;;
6775;SDS011;3425;51.376;5.222;2023-02-23T13:01:32;2.50;;;1.35;;
6775;SDS011;3425;51.376;5.222;2023-02-23T13:09:23;6.20;;;1.95;;
6775;SDS011;3425;51.376;5.222;2023-02-23T13:14:29;4.20;;;2.03;;
6775;SDS011;3425;51.376;5.222;2023-02-23T13:17:03;1.77;;;1.63;;
6775;SDS011;3425;51.376;5.222;2023-02-23T13:19:37;3.20;;;2.47;;
6775;SDS011;3425;51.376;5.222;2023-02-23T13:22:20;2.28;;;1.70;;
6775;SDS011;3425;51.376;5.222;2023-02-23T13:24:50;4.60;;;2.70;;
6775;SDS011;3425;51.376;5.222;2023-02-23T13:27:22;5.82;;;2.92;;
6775;SDS011;3425;51.376;5.222;2023-02-23T13:29:50;4.80;;;2.28;;
6775;SDS011;3425;51.376;5.222;2023-02-23T13:32:21;3.78;;;1.80;;
6775;SDS011;3425;51.376;5.222;2023-02-23T13:37:19;1.50;;;1.30;;
6775;SDS011;3425;51.376;5.222;2023-02-23T13:50:30;7.95;;;1.35;;
6775;SDS011;3425;51.376;5.222;2023-02-23T13:53:00;1.45;;;1.15;;
6775;SDS011;3425;51.376;5.222;2023-02-23T13:55:35;1.98;;;0.75;;
6775;SDS011;3425;51.376;5.222;2023-02-23T13:58:15;0.35;;;0.35;;
6775;SDS011;3425;51.376;5.222;2023-02-23T14:00:43;0.40;;;0.35;;
6775;SDS011;3425;51.376;5.222;2023-02-23T14:03:19;0.63;;;0.50;;
6775;SDS011;3425;51.376;5.222;2023-02-23T14:05:48;1.85;;;1.13;;
6775;SDS011;3425;51.376;5.222;2023-02-23T14:08:33;0.95;;;0.88;;
6775;SDS011;3425;51.376;5.222;2023-02-23T14:11:02;2.65;;;1.35;;
6775;SDS011;3425;51.376;5.222;2023-02-23T14:13:31;0.40;;;0.40;;
6775;SDS011;3425;51.376;5.222;2023-02-23T14:16:16;2.60;;;1.73;;
6775;SDS011;3425;51.376;5.222;2023-02-23T14:18:52;1.10;;;1.05;;
6775;SDS011;3425;51.376;5.222;2023-02-23T14:24:00;2.58;;;2.15;;
6775;SDS011;3425;51.376;5.222;2023-02-23T14:34:41;0.85;;;0.85;;
6775;SDS011;3425;51.376;5.222;2023-02-23T14:37:13;5.90;;;1.08;;
6775;SDS011;3425;51.376;5.222;2023-02-23T14:39:42;1.75;;;0.98;;
6775;SDS011;3425;51.376;5.222;2023-02-23T14:42:13;1.55;;;1.13;;
6775;SDS011;3425;51.376;5.222;2023-02-23T14:44:44;0.88;;;0.70;;
6775;SDS011;3425;51.376;5.222;2023-02-23T14:47:20;1.05;;;1.05;;
6775;SDS011;3425;51.376;5.222;2023-02-23T14:54:44;0.77;;;0.52;;
6775;SDS011;3425;51.376;5.222;2023-02-23T14:59:50;0.22;;;0.22;;
6775;SDS011;3425;51.376;5.222;2023-02-23T15:02:19;1.65;;;0.80;;
6775;SDS011;3425;51.376;5.222;2023-02-23T15:04:46;1.75;;;0.90;;
6775;SDS011;3425;51.376;5.222;2023-02-23T15:07:14;0.25;;;0.25;;
6775;SDS011;3425;51.376;5.222;2023-02-23T15:09:43;1.30;;;0.93;;
6775;SDS011;3425;51.376;5.222;2023-02-23T15:12:19;4.20;;;0.60;;
6775;SDS011;3425;51.376;5.222;2023-02-23T15:14:48;1.40;;;0.88;;
6775;SDS011;3425;51.376;5.222;2023-02-23T15:17:16;0.38;;;0.38;;
6775;SDS011;3425;51.376;5.222;2023-02-23T15:19:44;15.02;;;2.70;;
6775;SDS011;3425;51.376;5.222;2023-02-23T15:22:19;0.30;;;0.30;;
6775;SDS011;3425;51.376;5.222;2023-02-23T15:24:48;1.17;;;0.82;;
6775;SDS011;3425;51.376;5.222;2023-02-23T15:27:16;0.32;;;0.32;;
6775;SDS011;3425;51.376;5.222;2023-02-23T15:29:43;0.60;;;0.60;;
6775;SDS011;3425;51.376;5.222;2023-02-23T15:32:12;3.15;;;0.85;;
6775;SDS011;3425;51.376;5.222;2023-02-23T15:34:40;3.60;;;0.77;;
6775;SDS011;3425;51.376;5.222;2023-02-23T15:39:52;6.05;;;0.95;;
6775;SDS011;3425;51.376;5.222;2023-02-23T15:42:27;1.00;;;0.68;;
6775;SDS011;3425;51.376;5.222;2023-02-23T15:45:01;12.07;;;1.10;;
6775;SDS011;3425;51.376;5.222;2023-02-23T15:47:32;4.35;;;1.48;;
6775;SDS011;3425;51.376;5.222;2023-02-23T15:52:34;0.68;;;0.68;;
6775;SDS011;3425;51.376;5.222;2023-02-23T15:55:06;0.70;;;0.70;;
6775;SDS011;3425;51.376;5.222;2023-02-23T15:57:40;2.60;;;0.77;;
6775;SDS011;3425;51.376;5.222;2023-02-23T16:00:21;1.98;;;1.80;;
6775;SDS011;3425;51.376;5.222;2023-02-23T16:02:58;3.63;;;1.08;;
6775;SDS011;3425;51.376;5.222;2023-02-23T16:05:26;0.65;;;0.55;;
6775;SDS011;3425;51.376;5.222;2023-02-23T16:08:01;0.95;;;0.70;;
6775;SDS011;3425;51.376;5.222;2023-02-23T16:10:42;1.38;;;1.00;;
6775;SDS011;3425;51.376;5.222;2023-02-23T16:13:11;1.80;;;1.08;;
6775;SDS011;3425;51.376;5.222;2023-02-23T16:15:39;2.65;;;0.60;;
6775;SDS011;3425;51.376;5.222;2023-02-23T16:18:16;0.40;;;0.40;;
6775;SDS011;3425;51.376;5.222;2023-02-23T16:20:45;1.00;;;0.88;;
6775;SDS011;3425;51.376;5.222;2023-02-23T16:23:18;1.13;;;0.90;;
6775;SDS011;3425;51.376;5.222;2023-02-23T16:25:58;5.07;;;1.33;;
6775;SDS011;3425;51.376;5.222;2023-02-23T16:28:27;1.50;;;0.95;;
6775;SDS011;3425;51.376;5.222;2023-02-23T16:31:00;0.75;;;0.75;;
6775;SDS011;3425;51.376;5.222;2023-02-23T16:34:16;0.50;;;0.50;;
6775;SDS011;3425;51.376;5.222;2023-02-23T16:36:20;2.88;;;1.35;;
6775;SDS011;3425;51.376;5.222;2023-02-23T16:38:58;5.95;;;2.95;;
6775;SDS011;3425;51.376;5.222;2023-02-23T16:41:28;6.45;;;1.85;;
6775;SDS011;3425;51.376;5.222;2023-02-23T16:43:56;1.50;;;0.95;;
6775;SDS011;3425;51.376;5.222;2023-02-23T16:46:26;0.68;;;0.45;;
6775;SDS011;3425;51.376;5.222;2023-02-23T16:48:53;1.40;;;1.30;;
6775;SDS011;3425;51.376;5.222;2023-02-23T16:51:30;2.28;;;0.70;;
6775;SDS011;3425;51.376;5.222;2023-02-23T16:53:59;1.50;;;0.65;;
6775;SDS011;3425;51.376;5.222;2023-02-23T16:56:29;3.63;;;1.45;;
6775;SDS011;3425;51.376;5.222;2023-02-23T16:58:57;1.50;;;1.27;;
6775;SDS011;3425;51.376;5.222;2023-02-23T17:01:26;1.38;;;1.15;;
6775;SDS011;3425;51.376;5.222;2023-02-23T17:03:54;3.92;;;1.65;;
6775;SDS011;3425;51.376;5.222;2023-02-23T17:06:21;7.07;;;1.15;;
6775;SDS011;3425;51.376;5.222;2023-02-23T17:08:48;1.02;;;0.55;;
6775;SDS011;3425;51.376;5.222;2023-02-23T17:11:24;17.52;;;1.15;;
6775;SDS011;3425;51.376;5.222;2023-02-23T17:13:51;0.88;;;0.88;;
6775;SDS011;3425;51.376;5.222;2023-02-23T17:16:18;0.70;;;0.70;;
6775;SDS011;3425;51.376;5.222;2023-02-23T17:18:46;2.88;;;1.40;;
6775;SDS011;3425;51.376;5.222;2023-02-23T17:21:14;3.03;;;1.38;;
6775;SDS011;3425;51.376;5.222;2023-02-23T17:23:48;7.50;;;1.40;;
6775;SDS011;3425;51.376;5.222;2023-02-23T17:26:21;0.43;;;0.43;;
6775;SDS011;3425;51.376;5.222;2023-02-23T17:28:48;2.40;;;1.25;;
6775;SDS011;3425;51.376;5.222;2023-02-23T17:31:17;1.08;;;0.95;;